createdAt,value
2018-02-15T00:00:48.651Z,27.73
2018-02-15T00:01:54.780Z,24.12
2018-02-15T00:03:00.657Z,28.80
2018-02-15T00:04:06.567Z,24.63
2018-02-15T00:05:12.743Z,21.77
2018-02-15T00:06:18.912Z,24.65
2018-02-15T00:07:25.125Z,26.02
2018-02-15T00:08:31.337Z,22.27
2018-02-15T00:09:37.560Z,28.40
2018-02-15T00:10:43.681Z,22.87
2018-02-15T00:11:57.886Z,23.38
2018-02-15T00:13:03.981Z,27.65
2018-02-15T00:14:10.158Z,22.10
2018-02-15T00:15:16.372Z,25.92
2018-02-15T00:16:22.627Z,25.52
2018-02-15T00:17:29.037Z,23.00
2018-02-15T00:18:35.267Z,27.70
2018-02-15T00:19:41.493Z,24.00
2018-02-15T00:20:47.629Z,24.05
2018-02-15T00:21:53.515Z,26.60
2018-02-15T00:22:59.666Z,25.80
2018-02-15T00:24:05.831Z,25.65
2018-02-15T00:25:12.091Z,24.35
2018-02-15T00:26:18.375Z,23.08
2018-02-15T00:27:24.811Z,21.90
2018-02-15T00:28:30.999Z,25.02
2018-02-15T00:29:37.225Z,24.58
2018-02-15T00:30:48.249Z,24.67
2018-02-15T00:31:54.432Z,27.85
2018-02-15T00:33:00.323Z,25.33
2018-02-15T00:34:06.145Z,27.98
2018-02-15T00:35:12.342Z,26.27
2018-02-15T00:36:18.467Z,22.77
2018-02-15T00:37:24.650Z,23.50
2018-02-15T00:38:30.851Z,26.67
2018-02-15T00:39:36.838Z,25.25
2018-02-15T00:40:43.050Z,25.77
2018-02-15T00:41:49.246Z,22.13
2018-02-15T00:42:55.134Z,25.90
2018-02-15T00:44:01.256Z,23.33
2018-02-15T00:45:07.500Z,24.20
2018-02-15T00:46:13.671Z,22.70
2018-02-15T00:47:19.884Z,24.95
2018-02-15T00:48:26.074Z,25.45
2018-02-15T00:49:32.270Z,25.10
2018-02-15T00:50:38.443Z,23.12
2018-02-15T00:51:44.603Z,26.15
2018-02-15T00:52:50.803Z,24.35
2018-02-15T00:53:56.652Z,27.75
2018-02-15T00:55:02.945Z,24.30
2018-02-15T00:56:09.283Z,24.15
2018-02-15T00:57:15.458Z,26.98
2018-02-15T00:58:21.695Z,29.42
2018-02-15T00:59:27.832Z,25.62
2018-02-15T01:00:37.011Z,27.55
2018-02-15T01:01:43.220Z,26.95
2018-02-15T01:02:49.368Z,25.15
2018-02-15T01:03:55.502Z,30.62
2018-02-15T01:05:01.407Z,26.90
2018-02-15T01:06:07.644Z,26.62
2018-02-15T01:07:16.446Z,29.67
2018-02-15T01:08:22.700Z,25.48
2018-02-15T01:09:28.903Z,25.92
2018-02-15T01:10:35.147Z,29.27
2018-02-15T01:11:40.990Z,27.60
2018-02-15T01:12:47.144Z,29.15
2018-02-15T01:13:53.313Z,28.15
2018-02-15T01:14:59.438Z,26.77
2018-02-15T01:16:10.099Z,31.37
2018-02-15T01:17:16.059Z,26.15
2018-02-15T01:18:22.261Z,27.98
2018-02-15T01:19:28.472Z,28.62
2018-02-15T01:20:34.656Z,25.80
2018-02-15T01:21:40.899Z,27.67
2018-02-15T01:22:47.128Z,27.23
2018-02-15T01:23:53.335Z,26.02
2018-02-15T01:24:59.471Z,28.30
2018-02-15T01:26:06.086Z,28.60
2018-02-15T01:27:13.506Z,28.55
2018-02-15T01:28:19.684Z,30.30
2018-02-15T01:29:25.695Z,28.12
2018-02-15T01:30:31.818Z,34.88
2018-02-15T01:31:38.000Z,27.02
2018-02-15T01:32:44.190Z,27.25
2018-02-15T01:33:50.330Z,28.85
2018-02-15T01:34:56.205Z,26.55
2018-02-15T01:36:02.443Z,27.67
2018-02-15T01:37:09.557Z,24.40
2018-02-15T01:38:15.714Z,23.08
2018-02-15T01:39:21.850Z,25.92
2018-02-15T01:40:28.162Z,25.67
2018-02-15T01:41:34.447Z,25.05
2018-02-15T01:42:40.659Z,28.45
2018-02-15T01:43:46.873Z,28.60
2018-02-15T01:44:53.040Z,30.73
2018-02-15T01:45:59.278Z,24.77
2018-02-15T01:47:05.465Z,24.12
2018-02-15T01:48:11.680Z,23.92
2018-02-15T01:49:17.868Z,24.45
2018-02-15T01:50:24.095Z,27.67
2018-02-15T01:51:30.358Z,24.67
2018-02-15T01:52:36.744Z,26.20
2018-02-15T01:53:42.878Z,26.15
2018-02-15T01:54:49.092Z,27.75
2018-02-15T01:55:56.083Z,24.40
2018-02-15T01:57:02.262Z,23.85
2018-02-15T01:58:08.405Z,25.98
2018-02-15T01:59:14.602Z,26.02
2018-02-15T02:00:20.787Z,26.40
2018-02-15T02:01:25.694Z,29.77
2018-02-15T02:02:31.917Z,24.87
2018-02-15T02:03:38.090Z,25.60
2018-02-15T02:04:44.281Z,26.40
2018-02-15T02:05:50.456Z,30.45
2018-02-15T02:06:56.623Z,30.23
2018-02-15T02:08:02.791Z,26.25
2018-02-15T02:09:08.992Z,25.08
2018-02-15T02:10:16.082Z,24.65
2018-02-15T02:11:22.255Z,23.87
2018-02-15T02:12:28.403Z,28.02
2018-02-15T02:13:34.548Z,27.08
2018-02-15T02:14:40.712Z,27.77
2018-02-15T02:15:46.897Z,24.20
2018-02-15T02:16:53.108Z,26.08
2018-02-15T02:17:59.272Z,26.20
2018-02-15T02:19:05.463Z,23.62
2018-02-15T02:20:11.659Z,28.65
2018-02-15T02:21:17.848Z,29.10
2018-02-15T02:22:23.796Z,28.98
2018-02-15T02:23:29.997Z,27.25
2018-02-15T02:24:36.158Z,31.58
2018-02-15T02:25:42.392Z,22.10
2018-02-15T02:26:48.557Z,28.00
2018-02-15T02:27:54.778Z,24.15
2018-02-15T02:29:00.917Z,23.70
2018-02-15T02:30:07.165Z,21.85
2018-02-15T02:31:13.379Z,24.55
2018-02-15T02:32:19.699Z,24.98
2018-02-15T02:33:25.869Z,22.95
2018-02-15T02:34:32.062Z,23.65
2018-02-15T02:35:38.285Z,25.85
2018-02-15T02:36:44.490Z,27.85
2018-02-15T02:37:50.749Z,26.37
2018-02-15T02:38:56.900Z,22.62
2018-02-15T02:40:03.092Z,24.60
2018-02-15T02:41:09.343Z,24.50
2018-02-15T02:42:15.500Z,24.87
2018-02-15T02:43:22.380Z,26.33
2018-02-15T02:44:28.535Z,25.60
2018-02-15T02:45:34.761Z,22.90
2018-02-15T02:46:40.951Z,28.35
2018-02-15T02:47:47.122Z,26.65
2018-02-15T02:48:53.640Z,21.55
2018-02-15T02:49:59.787Z,30.08
2018-02-15T02:51:05.958Z,22.55
2018-02-15T02:52:12.109Z,22.00
2018-02-15T02:53:18.284Z,24.63
2018-02-15T02:54:24.471Z,26.70
2018-02-15T02:55:30.633Z,26.25
2018-02-15T02:56:36.887Z,24.12
2018-02-15T02:57:43.049Z,23.38
2018-02-15T02:58:49.254Z,25.95
2018-02-15T02:59:55.476Z,22.67
2018-02-15T03:01:02.656Z,27.60
2018-02-15T03:02:08.865Z,23.58
2018-02-15T03:03:15.106Z,23.50
2018-02-15T03:04:21.269Z,26.33
2018-02-15T03:05:27.383Z,25.25
2018-02-15T03:06:33.554Z,29.05
2018-02-15T03:07:39.792Z,26.15
2018-02-15T03:08:45.353Z,26.00
2018-02-15T03:09:51.581Z,25.95
2018-02-15T03:10:58.245Z,22.60
2018-02-15T03:12:04.432Z,23.02
2018-02-15T03:13:10.624Z,22.95
2018-02-15T03:14:16.810Z,27.45
2018-02-15T03:15:23.004Z,22.62
2018-02-15T03:16:29.177Z,24.05
2018-02-15T03:17:35.366Z,25.05
2018-02-15T03:18:41.734Z,25.08
2018-02-15T03:19:47.900Z,28.60
2018-02-15T03:20:54.046Z,22.13
2018-02-15T03:22:00.239Z,27.80
2018-02-15T03:23:06.474Z,25.17
2018-02-15T03:24:12.642Z,24.70
2018-02-15T03:25:21.894Z,21.87
2018-02-15T03:26:28.101Z,24.75
2018-02-15T03:27:39.015Z,23.08
2018-02-15T03:28:45.177Z,24.35
2018-02-15T03:29:51.366Z,25.52
2018-02-15T03:30:57.543Z,25.27
2018-02-15T03:32:03.727Z,27.20
2018-02-15T03:33:09.969Z,21.95
2018-02-15T03:34:16.141Z,26.67
2018-02-15T03:35:22.322Z,26.00
2018-02-15T03:36:28.529Z,26.02
2018-02-15T03:37:34.769Z,27.95
2018-02-15T03:38:41.031Z,23.45
2018-02-15T03:39:47.296Z,25.77
2018-02-15T03:40:53.221Z,24.23
2018-02-15T03:41:59.395Z,27.08
2018-02-15T03:43:05.634Z,29.33
2018-02-15T03:44:11.941Z,23.25
2018-02-15T03:45:18.108Z,27.62
2018-02-15T03:46:24.321Z,23.95
2018-02-15T03:47:30.454Z,27.40
2018-02-15T03:48:36.739Z,25.05
2018-02-15T03:49:42.650Z,28.75
2018-02-15T03:50:48.843Z,25.30
2018-02-15T03:51:55.037Z,24.83
2018-02-15T03:53:01.194Z,23.80
2018-02-15T03:54:07.394Z,23.10
2018-02-15T03:55:13.604Z,25.67
2018-02-15T03:56:19.838Z,27.73
2018-02-15T03:57:26.002Z,22.85
2018-02-15T03:58:32.188Z,25.15
2018-02-15T03:59:38.464Z,26.87
2018-02-15T04:00:44.682Z,22.55
2018-02-15T04:01:50.916Z,26.40
2018-02-15T04:02:57.162Z,24.40
2018-02-15T04:04:03.325Z,22.80
2018-02-15T04:05:09.601Z,26.52
2018-02-15T04:06:19.862Z,24.50
2018-02-15T04:07:26.077Z,25.77
2018-02-15T04:08:36.877Z,26.23
2018-02-15T04:09:43.144Z,33.63
2018-02-15T04:10:49.352Z,23.35
2018-02-15T04:11:55.572Z,23.33
2018-02-15T04:13:01.726Z,25.20
2018-02-15T04:14:07.873Z,25.48
2018-02-15T04:15:13.574Z,23.02
2018-02-15T04:16:19.798Z,26.60
2018-02-15T04:17:26.055Z,23.45
2018-02-15T04:18:32.295Z,27.30
2018-02-15T04:19:38.240Z,22.75
2018-02-15T04:20:44.432Z,24.45
2018-02-15T04:21:50.605Z,24.23
2018-02-15T04:22:57.024Z,23.40
2018-02-15T04:24:03.292Z,27.70
2018-02-15T04:25:09.489Z,24.23
2018-02-15T04:26:15.718Z,23.67
2018-02-15T04:27:21.970Z,23.25
2018-02-15T04:28:28.425Z,24.95
2018-02-15T04:29:34.691Z,20.85
2018-02-15T04:30:40.929Z,25.48
2018-02-15T04:31:47.168Z,21.77
2018-02-15T04:32:53.546Z,25.60
2018-02-15T04:33:59.816Z,25.40
2018-02-15T04:35:05.988Z,23.15
2018-02-15T04:36:12.131Z,24.87
2018-02-15T04:37:18.279Z,23.00
2018-02-15T04:38:24.440Z,23.40
2018-02-15T04:39:30.700Z,24.58
2018-02-15T04:40:39.899Z,24.45
2018-02-15T04:41:46.344Z,24.00
2018-02-15T04:42:52.581Z,21.95
2018-02-15T04:43:59.360Z,22.60
2018-02-15T04:45:05.633Z,24.00
2018-02-15T04:46:12.057Z,24.75
2018-02-15T04:47:18.428Z,21.60
2018-02-15T04:48:26.218Z,24.05
2018-02-15T04:49:32.475Z,20.75
2018-02-15T04:50:39.834Z,23.05
2018-02-15T04:51:47.259Z,21.50
2018-02-15T04:52:55.036Z,21.20
2018-02-15T04:54:01.846Z,25.27
2018-02-15T04:55:09.370Z,22.02
2018-02-15T04:56:16.814Z,21.52
2018-02-15T04:57:23.935Z,20.80
2018-02-15T04:58:31.734Z,23.08
2018-02-15T04:59:40.987Z,25.40
2018-02-15T05:00:51.827Z,22.27
2018-02-15T05:02:00.930Z,19.48
2018-02-15T05:03:09.788Z,24.55
2018-02-15T05:04:17.077Z,24.85
2018-02-15T05:05:24.218Z,24.92
2018-02-15T05:06:32.877Z,22.10
2018-02-15T05:07:40.193Z,24.08
2018-02-15T05:08:49.117Z,20.33
2018-02-15T05:09:56.978Z,23.55
2018-02-15T05:11:06.503Z,27.10
2018-02-15T05:12:14.339Z,24.42
2018-02-15T05:13:22.083Z,20.45
2018-02-15T05:14:31.206Z,25.88
2018-02-15T05:15:38.002Z,22.58
2018-02-15T05:16:44.256Z,21.85
2018-02-15T05:17:50.459Z,24.08
2018-02-15T05:18:56.690Z,22.77
2018-02-15T05:20:02.980Z,27.55
2018-02-15T05:21:08.946Z,25.45
2018-02-15T05:22:15.182Z,23.52
2018-02-15T05:23:21.356Z,23.40
2018-02-15T05:24:27.649Z,24.40
2018-02-15T05:25:33.915Z,25.40
2018-02-15T05:26:40.168Z,23.75
2018-02-15T05:27:46.437Z,25.55
2018-02-15T05:28:52.382Z,25.75
2018-02-15T05:29:58.557Z,21.20
2018-02-15T05:31:04.735Z,22.08
2018-02-15T05:32:10.962Z,22.70
2018-02-15T05:33:17.229Z,24.20
2018-02-15T05:34:23.417Z,27.55
2018-02-15T05:35:29.544Z,25.48
2018-02-15T05:36:35.687Z,23.02
2018-02-15T05:37:41.928Z,23.12
2018-02-15T05:38:48.140Z,24.45
2018-02-15T05:39:54.309Z,22.65
2018-02-15T05:41:00.537Z,23.98
2018-02-15T05:42:06.855Z,22.80
2018-02-15T05:43:13.072Z,25.58
2018-02-15T05:44:19.344Z,22.33
2018-02-15T05:45:25.230Z,25.55
2018-02-15T05:46:31.383Z,28.27
2018-02-15T05:47:37.349Z,21.12
2018-02-15T05:48:43.618Z,24.27
2018-02-15T05:49:49.835Z,23.73
2018-02-15T05:50:56.020Z,21.05
2018-02-15T05:52:02.398Z,21.70
2018-02-15T05:53:08.649Z,19.48
2018-02-15T05:54:14.876Z,23.08
2018-02-15T05:55:21.090Z,23.40
2018-02-15T05:56:27.387Z,23.35
2018-02-15T05:57:39.704Z,23.25
2018-02-15T05:58:45.912Z,22.33
2018-02-15T05:59:52.246Z,24.75
2018-02-15T06:00:58.419Z,22.83
2018-02-15T06:02:04.650Z,24.52
2018-02-15T06:03:13.322Z,26.45
2018-02-15T06:04:19.532Z,21.15
2018-02-15T06:05:25.667Z,24.02
2018-02-15T06:06:31.842Z,20.37
2018-02-15T06:07:37.998Z,25.95
2018-02-15T06:08:44.287Z,25.08
2018-02-15T06:09:50.491Z,23.73
2018-02-15T06:10:56.733Z,22.00
2018-02-15T06:12:02.941Z,22.80
2018-02-15T06:13:09.193Z,20.75
2018-02-15T06:14:14.991Z,24.48
2018-02-15T06:15:21.310Z,23.87
2018-02-15T06:16:27.173Z,20.92
2018-02-15T06:17:33.356Z,23.15
2018-02-15T06:18:39.585Z,20.23
2018-02-15T06:19:45.784Z,22.30
2018-02-15T06:20:52.004Z,26.77
2018-02-15T06:21:58.220Z,24.48
2018-02-15T06:23:04.522Z,22.27
2018-02-15T06:24:10.654Z,24.80
2018-02-15T06:25:16.821Z,21.77
2018-02-15T06:26:23.043Z,23.40
2018-02-15T06:27:29.246Z,22.70
2018-02-15T06:28:35.414Z,25.05
2018-02-15T06:29:41.680Z,27.85
2018-02-15T06:30:57.464Z,26.70
2018-02-15T06:32:03.663Z,24.20
2018-02-15T06:33:09.857Z,24.55
2018-02-15T06:34:16.035Z,24.35
2018-02-15T06:35:22.194Z,26.90
2018-02-15T06:36:28.376Z,28.25
2018-02-15T06:37:34.531Z,28.38
2018-02-15T06:38:40.939Z,28.38
2018-02-15T06:39:47.093Z,40.75
2018-02-15T06:40:53.269Z,45.08
2018-02-15T06:41:59.445Z,40.20
2018-02-15T06:43:05.652Z,47.67
2018-02-15T06:44:11.857Z,44.40
2018-02-15T06:45:18.076Z,38.80
2018-02-15T06:46:24.232Z,47.30
2018-02-15T06:47:30.461Z,42.42
2018-02-15T06:48:36.624Z,46.03
2018-02-15T06:49:42.884Z,50.40
2018-02-15T06:50:49.329Z,52.08
2018-02-15T06:52:01.333Z,48.97
2018-02-15T06:53:07.551Z,32.58
2018-02-15T06:54:13.717Z,33.08
2018-02-15T06:55:19.855Z,31.23
2018-02-15T06:56:31.072Z,34.10
2018-02-15T06:57:38.189Z,30.42
2018-02-15T06:58:49.808Z,26.70
2018-02-15T06:59:57.172Z,28.35
2018-02-15T07:01:04.749Z,24.77
2018-02-15T07:02:16.220Z,22.75
2018-02-15T07:03:27.845Z,30.00
2018-02-15T07:04:35.085Z,30.77
2018-02-15T07:05:43.356Z,29.50
2018-02-15T07:06:51.093Z,28.90
2018-02-15T07:07:58.216Z,27.90
2018-02-15T07:09:06.001Z,27.95
2018-02-15T07:10:13.819Z,32.08
2018-02-15T07:11:22.946Z,24.87
2018-02-15T07:12:31.543Z,27.30
2018-02-15T07:13:39.677Z,23.92
2018-02-15T07:14:46.869Z,25.20
2018-02-15T07:15:54.090Z,27.40
2018-02-15T07:17:03.458Z,28.35
2018-02-15T07:18:12.004Z,29.42
2018-02-15T07:19:20.841Z,30.60
2018-02-15T07:20:28.866Z,28.65
2018-02-15T07:21:36.157Z,26.60
2018-02-15T07:22:47.169Z,29.63
2018-02-15T07:23:56.695Z,23.05
2018-02-15T07:25:03.737Z,29.17
2018-02-15T07:26:11.352Z,31.27
2018-02-15T07:27:19.091Z,30.23
2018-02-15T07:28:26.790Z,30.17
2018-02-15T07:29:34.035Z,24.27
2018-02-15T07:30:42.440Z,24.95
2018-02-15T07:31:51.314Z,28.17
2018-02-15T07:32:59.561Z,26.92
2018-02-15T07:34:08.752Z,28.87
2018-02-15T07:35:15.984Z,29.73
2018-02-15T07:36:24.015Z,33.05
2018-02-15T07:37:32.398Z,34.75
2018-02-15T07:38:39.498Z,28.70
2018-02-15T07:39:46.541Z,30.00
2018-02-15T07:40:55.302Z,39.78
2018-02-15T07:42:02.546Z,27.85
2018-02-15T07:43:09.915Z,29.35
2018-02-15T07:44:17.380Z,26.95
2018-02-15T07:45:24.485Z,31.10
2018-02-15T07:46:31.258Z,30.67
2018-02-15T07:47:37.256Z,29.10
2018-02-15T07:48:43.273Z,26.37
2018-02-15T07:49:49.328Z,31.30
2018-02-15T07:50:55.312Z,27.87
2018-02-15T07:52:01.396Z,31.83
2018-02-15T07:53:10.699Z,27.65
2018-02-15T07:54:16.691Z,32.05
2018-02-15T07:55:22.681Z,28.33
2018-02-15T07:56:28.620Z,28.40
2018-02-15T07:57:34.557Z,28.90
2018-02-15T07:58:40.579Z,30.60
2018-02-15T07:59:46.692Z,26.75
2018-02-15T08:00:52.907Z,24.45
2018-02-15T08:01:59.157Z,32.10
2018-02-15T08:03:05.334Z,25.83
2018-02-15T08:04:11.528Z,27.37
2018-02-15T08:05:17.718Z,26.12
2018-02-15T08:06:26.741Z,26.80
2018-02-15T08:07:32.924Z,25.42
2018-02-15T08:08:39.147Z,30.73
2018-02-15T08:09:45.349Z,29.48
2018-02-15T08:10:51.523Z,27.77
2018-02-15T08:11:57.724Z,27.05
2018-02-15T08:13:03.892Z,24.73
2018-02-15T08:14:10.118Z,28.50
2018-02-15T08:15:16.335Z,28.83
2018-02-15T08:16:22.510Z,26.02
2018-02-15T08:17:28.672Z,27.37
2018-02-15T08:18:34.857Z,30.12
2018-02-15T08:19:40.870Z,27.70
2018-02-15T08:20:47.099Z,28.08
2018-02-15T08:21:53.337Z,29.23
2018-02-15T08:22:59.523Z,25.30
2018-02-15T08:24:05.689Z,29.45
2018-02-15T08:25:11.602Z,25.33
2018-02-15T08:26:17.756Z,24.77
2018-02-15T08:27:23.929Z,30.30
2018-02-15T08:28:30.167Z,26.35
2018-02-15T08:29:36.348Z,23.02
2018-02-15T08:30:47.560Z,22.95
2018-02-15T08:31:53.756Z,27.15
2018-02-15T08:32:59.950Z,26.20
2018-02-15T08:34:06.138Z,24.45
2018-02-15T08:35:12.276Z,30.62
2018-02-15T08:36:18.467Z,24.37
2018-02-15T08:37:24.624Z,23.45
2018-02-15T08:38:30.802Z,31.27
2018-02-15T08:39:36.990Z,24.17
2018-02-15T08:40:43.163Z,24.23
2018-02-15T08:41:49.383Z,29.25
2018-02-15T08:42:55.574Z,28.08
2018-02-15T08:44:01.761Z,24.65
2018-02-15T08:45:07.919Z,25.45
2018-02-15T08:46:14.221Z,26.15
2018-02-15T08:47:20.387Z,30.02
2018-02-15T08:48:26.638Z,28.65
2018-02-15T08:49:32.771Z,30.00
2018-02-15T08:50:38.995Z,23.75
2018-02-15T08:51:45.181Z,29.55
2018-02-15T08:52:51.333Z,23.95
2018-02-15T08:53:57.539Z,27.77
2018-02-15T08:55:03.732Z,25.92
2018-02-15T08:56:09.938Z,29.40
2018-02-15T08:57:16.074Z,26.35
2018-02-15T08:58:22.263Z,27.87
2018-02-15T08:59:28.415Z,28.00
2018-02-15T09:00:34.649Z,25.88
2018-02-15T09:01:40.855Z,24.33
2018-02-15T09:02:46.829Z,27.50
2018-02-15T09:03:53.423Z,24.20
2018-02-15T09:04:59.620Z,27.48
2018-02-15T09:06:05.778Z,24.10
2018-02-15T09:07:11.883Z,25.88
2018-02-15T09:08:18.024Z,31.83
2018-02-15T09:09:23.939Z,25.15
2018-02-15T09:10:30.672Z,24.65
2018-02-15T09:11:36.820Z,26.12
2018-02-15T09:12:43.081Z,28.27
2018-02-15T09:13:49.259Z,23.80
2018-02-15T09:14:55.395Z,26.40
2018-02-15T09:16:01.589Z,25.33
2018-02-15T09:17:07.750Z,28.27
2018-02-15T09:18:13.928Z,22.02
2018-02-15T09:19:20.072Z,26.15
2018-02-15T09:20:31.471Z,23.48
2018-02-15T09:21:37.640Z,23.98
2018-02-15T09:22:43.851Z,25.23
2018-02-15T09:23:50.004Z,27.08
2018-02-15T09:24:56.181Z,22.35
2018-02-15T09:26:02.379Z,26.55
2018-02-15T09:27:08.621Z,23.87
2018-02-15T09:28:17.762Z,24.17
2018-02-15T09:29:23.958Z,28.40
2018-02-15T09:30:30.144Z,25.08
2018-02-15T09:31:36.294Z,27.77
2018-02-15T09:32:42.463Z,24.67
2018-02-15T09:33:48.650Z,22.27
2018-02-15T09:34:54.918Z,26.30
2018-02-15T09:36:01.132Z,23.95
2018-02-15T09:37:07.022Z,23.05
2018-02-15T09:38:13.172Z,27.35
2018-02-15T09:39:19.448Z,25.85
2018-02-15T09:40:25.589Z,19.77
2018-02-15T09:41:40.181Z,26.50
2018-02-15T09:42:46.735Z,26.80
2018-02-15T09:43:52.934Z,25.85
2018-02-15T09:44:59.138Z,27.23
2018-02-15T09:46:05.366Z,24.35
2018-02-15T09:47:11.492Z,23.95
2018-02-15T09:48:17.395Z,30.35
2018-02-15T09:49:23.317Z,28.10
2018-02-15T09:50:31.500Z,25.83
2018-02-15T09:51:37.645Z,23.23
2018-02-15T09:52:43.772Z,23.25
2018-02-15T09:53:49.662Z,21.90
2018-02-15T09:54:55.781Z,23.80
2018-02-15T09:56:02.014Z,27.50
2018-02-15T09:57:08.946Z,25.25
2018-02-15T09:58:15.116Z,24.85
2018-02-15T09:59:21.299Z,24.35
2018-02-15T10:00:27.454Z,23.92
2018-02-15T10:01:33.610Z,26.85
2018-02-15T10:02:39.739Z,24.52
2018-02-15T10:03:45.978Z,23.27
2018-02-15T10:04:52.141Z,25.00
2018-02-15T10:05:58.326Z,21.87
2018-02-15T10:07:04.466Z,21.40
2018-02-15T10:08:10.691Z,25.88
2018-02-15T10:09:16.832Z,25.58
2018-02-15T10:10:23.038Z,22.35
2018-02-15T10:11:28.966Z,24.50
2018-02-15T10:12:35.188Z,20.33
2018-02-15T10:13:41.605Z,23.77
2018-02-15T10:14:47.832Z,27.50
2018-02-15T10:15:53.774Z,22.08
2018-02-15T10:16:59.761Z,23.90
2018-02-15T10:18:06.057Z,20.77
2018-02-15T10:19:12.214Z,24.30
2018-02-15T10:20:18.763Z,21.55
2018-02-15T10:21:24.960Z,23.02
2018-02-15T10:22:31.108Z,23.10
2018-02-15T10:23:37.291Z,22.75
2018-02-15T10:24:43.460Z,20.88
2018-02-15T10:25:49.643Z,26.15
2018-02-15T10:26:55.797Z,22.17
2018-02-15T10:28:01.977Z,21.42
2018-02-15T10:29:08.157Z,22.37
2018-02-15T10:30:14.291Z,19.55
2018-02-15T10:31:20.881Z,24.37
2018-02-15T10:32:26.833Z,23.70
2018-02-15T10:33:32.995Z,21.60
2018-02-15T10:34:39.116Z,26.62
2018-02-15T10:35:45.247Z,22.45
2018-02-15T10:36:51.435Z,22.55
2018-02-15T10:37:57.591Z,21.98
2018-02-15T10:39:03.228Z,23.77
2018-02-15T10:40:09.075Z,27.25
2018-02-15T10:41:15.255Z,21.55
2018-02-15T10:42:21.439Z,23.17
2018-02-15T10:43:27.632Z,21.77
2018-02-15T10:44:33.808Z,23.10
2018-02-15T10:45:39.911Z,21.40
2018-02-15T10:46:46.107Z,22.37
2018-02-15T10:47:53.136Z,18.27
2018-02-15T10:48:59.500Z,20.30
2018-02-15T10:50:05.660Z,25.67
2018-02-15T10:51:11.860Z,23.27
2018-02-15T10:52:18.101Z,25.25
2018-02-15T10:53:24.276Z,20.17
2018-02-15T10:54:30.452Z,22.17
2018-02-15T10:55:36.656Z,21.48
2018-02-15T10:56:42.820Z,21.42
2018-02-15T10:57:48.929Z,20.10
2018-02-15T10:58:54.690Z,21.15
2018-02-15T11:00:00.712Z,20.85
2018-02-15T11:01:12.039Z,27.48
2018-02-15T11:02:23.124Z,21.50
2018-02-15T11:03:30.063Z,19.12
2018-02-15T11:04:36.100Z,23.00
2018-02-15T11:05:42.304Z,20.23
2018-02-15T11:06:48.556Z,23.27
2018-02-15T11:07:54.751Z,19.75
2018-02-15T11:09:01.001Z,24.30
2018-02-15T11:10:07.220Z,19.95
2018-02-15T11:11:13.631Z,20.52
2018-02-15T11:12:19.891Z,21.73
2018-02-15T11:13:26.278Z,22.40
2018-02-15T11:14:32.487Z,24.50
2018-02-15T11:15:39.317Z,19.17
2018-02-15T11:16:45.985Z,21.42
2018-02-15T11:17:52.404Z,20.20
2018-02-15T11:18:59.884Z,23.12
2018-02-15T11:20:06.366Z,22.80
2018-02-15T11:21:12.918Z,20.20
2018-02-15T11:22:21.581Z,24.45
2018-02-15T11:23:29.286Z,21.52
2018-02-15T11:24:37.823Z,21.33
2018-02-15T11:25:45.699Z,21.87
2018-02-15T11:26:52.868Z,23.35
2018-02-15T11:28:00.450Z,19.20
2018-02-15T11:29:08.515Z,20.98
2018-02-15T11:30:15.861Z,23.00
2018-02-15T11:31:23.434Z,21.40
2018-02-15T11:32:31.712Z,18.55
2018-02-15T11:33:38.572Z,18.58
2018-02-15T11:34:45.471Z,20.37
2018-02-15T11:35:52.387Z,22.33
2018-02-15T11:37:02.244Z,20.80
2018-02-15T11:38:09.654Z,21.87
2018-02-15T11:39:17.449Z,21.02
2018-02-15T11:40:24.125Z,21.58
2018-02-15T11:41:30.803Z,19.77
2018-02-15T11:42:38.779Z,18.30
2018-02-15T11:43:46.672Z,19.75
2018-02-15T11:44:53.726Z,23.92
2018-02-15T11:46:01.000Z,19.30
2018-02-15T11:47:08.127Z,19.12
2018-02-15T11:48:16.096Z,18.90
2018-02-15T11:49:23.870Z,19.95
2018-02-15T11:50:31.426Z,21.58
2018-02-15T11:51:40.287Z,22.90
2018-02-15T11:52:47.301Z,20.52
2018-02-15T11:53:55.278Z,18.75
2018-02-15T11:55:02.298Z,21.60
2018-02-15T11:56:09.879Z,24.37
2018-02-15T11:57:17.772Z,21.48
2018-02-15T11:58:25.183Z,16.35
2018-02-15T11:59:32.813Z,21.55
2018-02-15T12:00:40.406Z,23.02
2018-02-15T12:01:47.938Z,22.75
2018-02-15T12:02:55.400Z,20.45
2018-02-15T12:04:02.023Z,20.95
2018-02-15T12:05:09.612Z,17.95
2018-02-15T12:06:17.418Z,23.98
2018-02-15T12:07:25.783Z,21.83
2018-02-15T12:08:34.071Z,19.58
2018-02-15T12:09:42.447Z,22.80
2018-02-15T12:10:51.358Z,21.05
2018-02-15T12:11:58.348Z,21.45
2018-02-15T12:13:06.701Z,21.90
2018-02-15T12:14:25.076Z,18.58
2018-02-15T12:15:33.379Z,18.35
2018-02-15T12:16:41.074Z,19.02
2018-02-15T12:17:47.984Z,19.55
2018-02-15T12:18:54.831Z,16.83
2018-02-15T12:20:01.625Z,19.50
2018-02-15T12:21:09.009Z,20.75
2018-02-15T12:22:17.499Z,20.33
2018-02-15T12:23:29.547Z,16.70
2018-02-15T12:24:37.803Z,18.20
2018-02-15T12:25:45.114Z,18.10
2018-02-15T12:26:52.834Z,19.20
2018-02-15T12:28:02.013Z,19.05
2018-02-15T12:29:09.862Z,18.37
2018-02-15T12:30:21.218Z,18.15
2018-02-15T12:31:34.774Z,20.77
2018-02-15T12:32:44.680Z,19.25
2018-02-15T12:33:53.503Z,17.27
2018-02-15T12:35:01.667Z,18.20
2018-02-15T12:36:09.627Z,18.52
2018-02-15T12:37:16.279Z,17.85
2018-02-15T12:38:23.432Z,16.08
2018-02-15T12:39:31.190Z,17.98
2018-02-15T12:40:39.199Z,16.90
2018-02-15T12:41:47.089Z,19.08
2018-02-15T12:42:55.198Z,19.45
2018-02-15T12:44:02.189Z,17.48
2018-02-15T12:45:10.163Z,23.17
2018-02-15T12:46:18.515Z,15.10
2018-02-15T12:47:26.354Z,20.15
2018-02-15T12:48:34.029Z,18.10
2018-02-15T12:49:40.820Z,17.73
2018-02-15T12:50:47.986Z,16.25
2018-02-15T12:51:57.106Z,16.62
2018-02-15T12:53:05.092Z,14.15
2018-02-15T12:54:14.462Z,15.73
2018-02-15T12:55:21.741Z,17.02
2018-02-15T12:56:29.415Z,16.75
2018-02-15T12:57:37.607Z,16.95
2018-02-15T12:58:45.281Z,13.88
2018-02-15T12:59:52.839Z,21.08
2018-02-15T13:01:00.263Z,14.43
2018-02-15T13:02:07.324Z,15.65
2018-02-15T13:03:15.392Z,15.98
2018-02-15T13:04:22.940Z,15.77
2018-02-15T13:05:30.613Z,17.75
2018-02-15T13:06:37.787Z,15.98
2018-02-15T13:07:46.176Z,15.18
2018-02-15T13:08:55.054Z,17.45
2018-02-15T13:10:02.664Z,14.87
2018-02-15T13:11:10.124Z,13.60
2018-02-15T13:12:30.064Z,18.15
2018-02-15T13:13:36.913Z,19.00
2018-02-15T13:14:44.805Z,18.05
2018-02-15T13:16:12.210Z,16.25
2018-02-15T13:17:19.172Z,13.25
2018-02-15T13:18:26.306Z,15.82
2018-02-15T13:19:49.815Z,17.02
2018-02-15T13:20:57.644Z,16.70
2018-02-15T13:23:47.828Z,14.93
2018-02-15T13:24:55.063Z,16.95
2018-02-15T13:26:04.005Z,15.38
2018-02-15T13:27:11.913Z,15.52
2018-02-15T13:28:30.224Z,14.10
2018-02-15T13:29:38.406Z,15.38
2018-02-15T13:30:45.612Z,15.13
2018-02-15T13:31:52.938Z,13.90
2018-02-15T13:33:01.443Z,19.20
2018-02-15T13:34:10.089Z,13.95
2018-02-15T13:35:18.746Z,13.93
2018-02-15T13:36:25.532Z,16.73
2018-02-15T13:37:32.998Z,14.87
2018-02-15T13:38:41.534Z,15.82
2018-02-15T13:39:48.783Z,19.55
2018-02-15T13:40:56.013Z,13.70
2018-02-15T13:42:03.716Z,16.95
2018-02-15T13:43:10.904Z,14.45
2018-02-15T13:44:18.229Z,16.90
2018-02-15T13:45:25.179Z,15.10
2018-02-15T13:46:32.066Z,15.45
2018-02-15T13:47:40.462Z,17.30
2018-02-15T13:48:47.569Z,13.20
2018-02-15T13:49:55.504Z,14.63
2018-02-15T13:51:03.753Z,13.43
2018-02-15T13:52:11.626Z,24.87
2018-02-15T13:53:18.453Z,22.30
2018-02-15T13:54:30.208Z,34.88
2018-02-15T13:55:38.474Z,22.23
2018-02-15T13:56:46.352Z,16.75
2018-02-15T13:57:53.182Z,15.80
2018-02-15T13:59:00.114Z,18.37
2018-02-15T14:00:06.966Z,16.25
2018-02-15T14:01:14.300Z,15.00
2018-02-15T14:02:21.417Z,18.65
2018-02-15T14:03:28.495Z,17.60
2018-02-15T14:04:36.029Z,16.52
2018-02-15T14:05:44.436Z,16.08
2018-02-15T14:06:51.577Z,13.38
2018-02-15T14:08:01.023Z,16.12
2018-02-15T14:09:08.715Z,14.85
2018-02-15T14:10:19.484Z,19.75
2018-02-15T14:11:27.766Z,14.18
2018-02-15T14:12:35.549Z,16.92
2018-02-15T14:13:43.969Z,19.25
2018-02-15T14:14:51.607Z,17.50
2018-02-15T14:15:58.843Z,15.70
2018-02-15T14:17:07.428Z,14.25
2018-02-15T14:18:14.394Z,14.27
2018-02-15T14:19:21.585Z,13.32
2018-02-15T14:20:28.874Z,12.80
2018-02-15T14:21:36.574Z,14.65
2018-02-15T14:22:44.736Z,18.48
2018-02-15T14:23:51.814Z,17.30